Time;durP1;ratioP1;P1;durP2;ratioP2;P2;SDS_P1;SDS_P2;PMS_P1;PMS_P2;Temp;Humidity;BMP_temperature;BMP_pressure;BME280_temperature;BME280_humidity;BME280_pressure;Samples;Min_cycle;Max_cycle;Signal;HPM_P1;HPM_P2
2023/12/05 00:00:30;;;;;;;8.37;5.20;;;;;;;;;;5032778;28;20215;-88
2023/12/05 00:06:05;;;;;;;12.60;5.87;;;;;;;;;;5045065;28;20196;-88
2023/12/05 00:08:51;;;;;;;10.03;5.90;;;;;;;;;;5047678;28;20246;-88
2023/12/05 00:11:39;;;;;;;9.33;5.87;;;;;;;;;;5041563;28;20228;-88
2023/12/05 00:14:08;;;;;;;7.20;5.13;;;;;;;;;;5035762;28;20207;-88
2023/12/05 00:19:50;;;;;;;5.50;4.93;;;;;;;;;;5039114;28;20263;-87
2023/12/05 00:22:40;;;;;;;4.70;4.17;;;;;;;;;;5034886;28;20705;-89
2023/12/05 00:28:41;;;;;;;7.37;3.73;;;;;;;;;;5028106;28;20208;-90
2023/12/05 00:46:13;;;;;;;8.03;4.07;;;;;;;;;;4998380;28;20229;-86
2023/12/05 00:49:24;;;;;;;7.27;4.97;;;;;;;;;;5028139;28;20287;-88
2023/12/05 00:52:02;;;;;;;7.57;4.83;;;;;;;;;;5032836;28;20255;-88
2023/12/05 00:57:44;;;;;;;6.40;4.87;;;;;;;;;;5001746;28;20195;-89
2023/12/05 01:00:16;;;;;;;8.07;5.03;;;;;;;;;;5035046;28;20277;-87
2023/12/05 01:02:52;;;;;;;11.33;4.53;;;;;;;;;;5036118;28;20196;-86
2023/12/05 01:05:28;;;;;;;4.33;3.93;;;;;;;;;;5050707;28;20302;-88
2023/12/05 01:07:59;;;;;;;5.97;4.73;;;;;;;;;;5049097;28;20649;-86
2023/12/05 01:10:50;;;;;;;8.90;4.27;;;;;;;;;;5038334;28;20275;-87
2023/12/05 01:13:24;;;;;;;5.97;4.63;;;;;;;;;;5037219;28;20223;-88
2023/12/05 01:16:32;;;;;;;6.63;5.33;;;;;;;;;;5031920;28;20197;-89
2023/12/05 01:22:11;;;;;;;7.20;3.40;;;;;;;;;;5028280;28;20211;-88
2023/12/05 01:24:41;;;;;;;5.83;3.80;;;;;;;;;;5013380;28;20738;-88
2023/12/05 01:27:13;;;;;;;4.67;3.17;;;;;;;;;;5015421;28;20201;-89
2023/12/05 01:29:50;;;;;;;10.20;3.90;;;;;;;;;;5015845;28;20220;-88
2023/12/05 01:32:21;;;;;;;4.93;3.77;;;;;;;;;;5025910;28;20224;-88
2023/12/05 01:35:04;;;;;;;3.63;3.33;;;;;;;;;;5038555;28;20197;-89
2023/12/05 01:37:54;;;;;;;3.07;2.77;;;;;;;;;;5032216;28;20220;-87
2023/12/05 01:43:25;;;;;;;7.27;2.90;;;;;;;;;;5017354;28;20204;-87
2023/12/05 01:45:53;;;;;;;3.57;3.27;;;;;;;;;;5018361;28;20205;-89
2023/12/05 01:48:34;;;;;;;5.90;3.37;;;;;;;;;;5017498;28;20205;-89
2023/12/05 01:51:13;;;;;;;5.30;2.80;;;;;;;;;;5016329;28;20225;-89
2023/12/05 01:53:54;;;;;;;;;;;;;;;;;;;;;
2023/12/05 01:56:42;;;;;;;4.47;3.97;;;;;;;;;;5016739;28;20215;-89
2023/12/05 01:59:17;;;;;;;8.77;3.20;;;;;;;;;;5015155;28;20615;-88
2023/12/05 02:02:02;;;;;;;3.20;2.90;;;;;;;;;;5017198;28;20219;-89
2023/12/05 02:04:33;;;;;;;7.57;3.03;;;;;;;;;;5015761;28;20661;-89
2023/12/05 02:07:13;;;;;;;5.73;2.63;;;;;;;;;;5017920;28;20228;-89
2023/12/05 02:09:45;;;;;;;2.77;2.63;;;;;;;;;;5017449;28;20192;-89
2023/12/05 02:12:18;;;;;;;7.83;4.07;;;;;;;;;;5017766;28;20323;-89
2023/12/05 02:14:53;;;;;;;4.27;3.40;;;;;;;;;;5015896;28;20219;-88
2023/12/05 02:17:26;;;;;;;3.23;2.93;;;;;;;;;;5021022;28;20203;-85
2023/12/05 02:19:59;;;;;;;4.07;3.77;;;;;;;;;;5017507;28;20215;-88
2023/12/05 02:23:01;;;;;;;5.07;3.57;;;;;;;;;;5016563;28;20264;-88
2023/12/05 02:25:43;;;;;;;6.27;3.67;;;;;;;;;;4937317;29;20339;-88
2023/12/05 02:28:15;;;;;;;6.20;4.20;;;;;;;;;;4937482;29;20697;-88
2023/12/05 02:30:55;;;;;;;7.17;3.77;;;;;;;;;;4983506;28;20659;-90
2023/12/05 02:33:26;;;;;;;5.50;3.10;;;;;;;;;;5016314;28;20302;-87
2023/12/05 02:36:09;;;;;;;5.17;3.07;;;;;;;;;;5016604;28;20201;-88
2023/12/05 02:38:42;;;;;;;3.03;2.80;;;;;;;;;;5016250;28;20291;-87
2023/12/05 02:41:15;;;;;;;5.07;2.87;;;;;;;;;;5016583;28;20247;-89
2023/12/05 02:44:00;;;;;;;4.10;3.23;;;;;;;;;;5016165;28;20219;-88
2023/12/05 02:46:32;;;;;;;4.33;3.43;;;;;;;;;;5015660;28;20197;-89
2023/12/05 02:49:03;;;;;;;4.03;3.03;;;;;;;;;;5017024;28;20602;-89
2023/12/05 02:51:33;;;;;;;5.10;2.80;;;;;;;;;;5016469;28;20661;-88
2023/12/05 02:54:06;;;;;;;3.87;3.53;;;;;;;;;;5016933;28;20232;-86
2023/12/05 02:56:34;;;;;;;3.83;3.47;;;;;;;;;;5016953;28;20278;-88
2023/12/05 02:59:03;;;;;;;9.73;3.53;;;;;;;;;;5016440;28;20203;-88
2023/12/05 03:01:39;;;;;;;5.93;3.60;;;;;;;;;;5015418;28;20732;-88
2023/12/05 03:04:08;;;;;;;3.97;3.27;;;;;;;;;;5016341;28;20205;-89
2023/12/05 03:06:39;;;;;;;5.83;3.40;;;;;;;;;;5016432;28;20209;-87
2023/12/05 03:09:18;;;;;;;5.47;3.47;;;;;;;;;;5016126;28;20287;-87
2023/12/05 03:11:47;;;;;;;3.83;3.27;;;;;;;;;;5015088;28;20220;-88
2023/12/05 03:14:17;;;;;;;4.73;3.40;;;;;;;;;;5016170;28;20228;-88
2023/12/05 03:16:51;;;;;;;5.37;3.83;;;;;;;;;;5017598;28;20292;-88
2023/12/05 03:19:19;;;;;;;4.97;3.97;;;;;;;;;;5016480;28;20188;-87
2023/12/05 03:21:56;;;;;;;7.17;3.47;;;;;;;;;;5015858;28;20219;-88
2023/12/05 03:24:27;;;;;;;2.87;2.57;;;;;;;;;;5016468;28;20672;-88
2023/12/05 03:26:56;;;;;;;10.73;5.17;;;;;;;;;;5016070;28;20197;-88
2023/12/05 03:29:26;;;;;;;3.00;2.80;;;;;;;;;;5016815;28;20215;-89
2023/12/05 03:31:55;;;;;;;5.90;3.17;;;;;;;;;;5015855;28;20197;-89
2023/12/05 03:34:24;;;;;;;9.43;3.17;;;;;;;;;;5015590;28;20813;-89
2023/12/05 03:36:54;;;;;;;4.00;3.60;;;;;;;;;;5017169;28;20290;-89
2023/12/05 03:39:36;;;;;;;6.40;3.77;;;;;;;;;;5020526;28;20248;-88
2023/12/05 03:42:19;;;;;;;9.73;2.90;;;;;;;;;;5016891;28;20278;-89
2023/12/05 03:44:55;;;;;;;6.17;4.17;;;;;;;;;;5017798;28;20204;-87
2023/12/05 03:47:25;;;;;;;3.20;3.00;;;;;;;;;;5016785;28;20192;-87
2023/12/05 03:49:58;;;;;;;9.30;4.00;;;;;;;;;;5017102;28;20306;-88
2023/12/05 03:52:29;;;;;;;4.17;3.77;;;;;;;;;;5017016;28;20239;-88
2023/12/05 03:55:04;;;;;;;3.97;3.67;;;;;;;;;;5015423;28;20207;-87
2023/12/05 03:57:37;;;;;;;5.93;4.07;;;;;;;;;;5017215;28;20224;-88
2023/12/05 04:00:12;;;;;;;5.97;3.73;;;;;;;;;;5016604;28;20200;-89
2023/12/05 04:02:44;;;;;;;5.70;4.47;;;;;;;;;;5016904;28;20656;-87
2023/12/05 04:05:16;;;;;;;7.10;4.17;;;;;;;;;;5015975;28;20204;-88
2023/12/05 04:07:50;;;;;;;10.60;5.53;;;;;;;;;;5016837;28;20315;-90
2023/12/05 04:10:18;;;;;;;5.27;4.37;;;;;;;;;;5016703;28;20215;-88
2023/12/05 04:12:50;;;;;;;8.90;4.40;;;;;;;;;;5016778;28;20239;-88
2023/12/05 04:15:21;;;;;;;7.07;4.50;;;;;;;;;;5026008;28;20442;-90
2023/12/05 04:17:50;;;;;;;6.03;4.73;;;;;;;;;;5034666;28;20189;-88
2023/12/05 04:20:21;;;;;;;6.63;4.50;;;;;;;;;;5030561;28;20201;-87
2023/12/05 04:22:55;;;;;;;6.47;3.80;;;;;;;;;;5021732;28;20207;-88
2023/12/05 04:25:28;;;;;;;5.07;3.97;;;;;;;;;;5016864;28;20279;-88
2023/12/05 04:27:56;;;;;;;13.80;7.43;;;;;;;;;;5017049;28;20745;-89
2023/12/05 04:30:35;;;;;;;14.37;7.20;;;;;;;;;;5015687;28;20196;-88
2023/12/05 04:33:20;;;;;;;13.37;9.07;;;;;;;;;;5016389;28;20255;-88
2023/12/05 04:39:14;;;;;;;9.43;6.03;;;;;;;;;;5014021;28;20643;-89
2023/12/05 04:41:44;;;;;;;6.80;5.30;;;;;;;;;;5016201;28;20201;-89
2023/12/05 04:44:46;;;;;;;5.97;5.37;;;;;;;;;;5027732;28;20240;-90
2023/12/05 04:47:36;;;;;;;7.10;5.13;;;;;;;;;;5035921;28;20203;-88
2023/12/05 04:53:18;;;;;;;6.13;4.03;;;;;;;;;;5056130;28;20236;-89
2023/12/05 04:55:55;;;;;;;8.60;4.00;;;;;;;;;;5044422;28;20222;-89
2023/12/05 04:58:51;;;;;;;33.37;17.30;;;;;;;;;;5052769;28;20188;-88
2023/12/05 05:01:35;;;;;;;11.77;4.67;;;;;;;;;;5049265;28;20196;-88
2023/12/05 05:04:07;;;;;;;5.57;4.33;;;;;;;;;;5049351;28;20286;-89
2023/12/05 05:12:46;;;;;;;6.67;4.63;;;;;;;;;;5044167;28;20460;-87
2023/12/05 05:15:15;;;;;;;10.47;4.27;;;;;;;;;;5047544;28;20263;-87
2023/12/05 05:17:50;;;;;;;5.30;4.53;;;;;;;;;;5044632;28;20200;-87
2023/12/05 05:20:22;;;;;;;17.97;6.50;;;;;;;;;;5040274;28;20200;-88
2023/12/05 05:23:10;;;;;;;8.13;5.00;;;;;;;;;;5036725;28;20216;-88
2023/12/05 05:25:50;;;;;;;7.07;4.53;;;;;;;;;;5038343;28;20253;-88
2023/12/05 05:28:35;;;;;;;12.97;5.00;;;;;;;;;;5041456;28;20203;-88
2023/12/05 05:31:31;;;;;;;7.00;4.67;;;;;;;;;;5036616;28;20812;-90
2023/12/05 05:36:47;;;;;;;9.67;5.73;;;;;;;;;;5036348;28;20199;-88
2023/12/05 05:39:18;;;;;;;9.27;6.73;;;;;;;;;;5035631;28;20227;-87
2023/12/05 05:41:52;;;;;;;7.10;5.27;;;;;;;;;;5037190;28;20188;-87
2023/12/05 05:44:52;;;;;;;10.37;5.70;;;;;;;;;;5042957;28;20231;-88
2023/12/05 05:47:21;;;;;;;6.93;4.70;;;;;;;;;;5054962;28;20604;-89
2023/12/05 05:49:59;;;;;;;16.70;7.07;;;;;;;;;;5035484;28;20695;-87
2023/12/05 05:52:27;;;;;;;10.20;7.07;;;;;;;;;;5035118;28;20231;-89
2023/12/05 05:54:56;;;;;;;9.40;5.90;;;;;;;;;;5037646;28;20251;-87
2023/12/05 05:57:28;;;;;;;14.90;6.77;;;;;;;;;;5049503;28;20204;-87
2023/12/05 06:00:11;;;;;;;6.63;5.97;;;;;;;;;;5048529;28;20189;-88
2023/12/05 06:02:55;;;;;;;9.83;4.73;;;;;;;;;;5033886;28;20200;-87
2023/12/05 06:05:24;;;;;;;6.97;5.17;;;;;;;;;;5033285;28;20295;-89
2023/12/05 06:07:53;;;;;;;14.03;7.13;;;;;;;;;;5031263;28;20331;-89
2023/12/05 06:10:44;;;;;;;7.10;5.10;;;;;;;;;;5031702;28;20231;-86
2023/12/05 06:13:12;;;;;;;11.53;4.70;;;;;;;;;;5033026;28;20239;-88
2023/12/05 06:15:56;;;;;;;7.43;5.40;;;;;;;;;;5031966;28;20204;-90
2023/12/05 06:18:28;;;;;;;9.10;4.93;;;;;;;;;;5026032;28;20269;-88
2023/12/05 06:21:04;;;;;;;10.90;5.33;;;;;;;;;;5041416;28;20208;-86
2023/12/05 06:23:35;;;;;;;13.47;7.17;;;;;;;;;;5037446;28;20550;-87
2023/12/05 06:26:15;;;;;;;11.37;7.17;;;;;;;;;;5034683;28;20202;-89
2023/12/05 06:28:54;;;;;;;12.30;6.27;;;;;;;;;;5040511;28;20283;-89
2023/12/05 06:31:25;;;;;;;13.63;7.17;;;;;;;;;;5034940;28;20582;-87
2023/12/05 06:34:15;;;;;;;18.27;7.53;;;;;;;;;;5036865;28;20223;-90
2023/12/05 06:36:44;;;;;;;9.17;5.97;;;;;;;;;;4958409;29;20265;-89
2023/12/05 06:39:15;;;;;;;17.83;7.83;;;;;;;;;;5033121;28;20292;-89
2023/12/05 06:41:46;;;;;;;10.37;6.00;;;;;;;;;;5023469;28;20619;-89
2023/12/05 06:44:32;;;;;;;10.80;6.03;;;;;;;;;;5040562;28;20231;-89
2023/12/05 06:47:28;;;;;;;12.00;5.50;;;;;;;;;;5037096;28;20265;-89
2023/12/05 06:59:44;;;;;;;10.77;6.90;;;;;;;;;;5033467;28;20676;-89
2023/12/05 07:12:36;;;;;;;;;;;;;;;;;;;;;
2023/12/05 07:15:25;;;;;;;10.33;6.00;;;;;;;;;;5069730;28;20215;-88
2023/12/05 07:18:19;;;;;;;22.10;7.00;;;;;;;;;;5045994;28;20203;-89
2023/12/05 07:21:02;;;;;;;9.87;6.17;;;;;;;;;;5050980;28;20195;-90
2023/12/05 07:23:30;;;;;;;9.63;6.23;;;;;;;;;;5051539;28;20660;-90
2023/12/05 07:26:03;;;;;;;16.20;7.73;;;;;;;;;;5040578;28;20238;-89
2023/12/05 07:28:35;;;;;;;7.23;5.97;;;;;;;;;;5031368;28;20208;-89
2023/12/05 07:34:05;;;;;;;12.03;6.77;;;;;;;;;;5032035;28;20204;-89
2023/12/05 07:36:35;;;;;;;11.17;6.90;;;;;;;;;;5033376;28;20204;-88
2023/12/05 07:39:04;;;;;;;9.60;6.77;;;;;;;;;;5030946;28;20224;-88
2023/12/05 07:41:49;;;;;;;8.60;6.00;;;;;;;;;;5030577;28;20223;-88
2023/12/05 07:44:30;;;;;;;9.70;6.03;;;;;;;;;;5031847;28;20295;-87
2023/12/05 07:46:58;;;;;;;8.93;5.03;;;;;;;;;;5034828;28;20275;-86
2023/12/05 07:49:44;;;;;;;8.33;5.30;;;;;;;;;;5038878;28;20212;-87
2023/12/05 07:52:29;;;;;;;10.93;7.00;;;;;;;;;;5042409;28;20218;-90
2023/12/05 07:54:58;;;;;;;13.23;6.37;;;;;;;;;;5041356;28;20588;-87
2023/12/05 07:57:35;;;;;;;7.60;5.87;;;;;;;;;;5041418;28;20204;-89
2023/12/05 08:00:28;;;;;;;9.37;7.00;;;;;;;;;;5042653;28;20211;-89
2023/12/05 08:06:02;;;;;;;11.60;6.93;;;;;;;;;;5031683;28;20218;-88
2023/12/05 08:08:44;;;;;;;9.77;6.87;;;;;;;;;;5048923;28;20256;-89
2023/12/05 08:14:39;;;;;;;9.70;6.80;;;;;;;;;;5045535;28;20235;-88
2023/12/05 08:17:18;;;;;;;10.27;6.23;;;;;;;;;;5036907;28;20309;-86
2023/12/05 08:23:24;;;;;;;;;;;;;;;;;;;;;
2023/12/05 08:26:22;;;;;;;7.07;5.23;;;;;;;;;;5013709;28;20620;-88
2023/12/05 08:28:57;;;;;;;12.37;6.93;;;;;;;;;;4996453;28;20271;-87
2023/12/05 08:31:30;;;;;;;8.53;5.73;;;;;;;;;;5014461;28;20327;-88
2023/12/05 08:34:24;;;;;;;10.33;6.47;;;;;;;;;;5016284;28;20667;-89
2023/12/05 08:37:08;;;;;;;9.33;6.67;;;;;;;;;;5014270;28;20200;-90
2023/12/05 08:43:01;;;;;;;12.30;6.40;;;;;;;;;;4934550;29;20271;-87
2023/12/05 08:57:39;;;;;;;9.20;6.40;;;;;;;;;;4914136;29;20673;-89
2023/12/05 09:03:34;;;;;;;9.20;6.10;;;;;;;;;;4994775;28;20368;-90
2023/12/05 09:06:18;;;;;;;14.53;7.47;;;;;;;;;;4997033;28;20197;-90
2023/12/05 09:08:58;;;;;;;17.57;8.30;;;;;;;;;;4996904;28;20216;-90
2023/12/05 09:14:34;;;;;;;17.70;6.40;;;;;;;;;;4968005;28;20209;-90
2023/12/05 09:17:22;;;;;;;12.93;7.77;;;;;;;;;;4996199;28;20662;-89
2023/12/05 09:19:58;;;;;;;16.53;8.33;;;;;;;;;;4995932;28;20221;-88
2023/12/05 09:22:51;;;;;;;10.70;6.30;;;;;;;;;;5013523;28;20696;-89
2023/12/05 09:25:23;;;;;;;12.40;8.20;;;;;;;;;;5017463;28;20291;-87
2023/12/05 09:27:56;;;;;;;14.47;7.37;;;;;;;;;;5016936;28;20185;-87
2023/12/05 09:30:28;;;;;;;12.27;7.47;;;;;;;;;;5015246;28;20284;-88
2023/12/05 09:33:12;;;;;;;11.37;8.03;;;;;;;;;;5012848;28;20231;-89
2023/12/05 09:36:05;;;;;;;11.97;6.80;;;;;;;;;;5015572;28;20287;-89
2023/12/05 09:38:47;;;;;;;10.43;7.53;;;;;;;;;;5015189;28;20522;-87
2023/12/05 09:41:18;;;;;;;17.87;6.83;;;;;;;;;;5015621;28;20630;-89
2023/12/05 09:43:52;;;;;;;11.90;6.83;;;;;;;;;;5014579;28;20227;-88
2023/12/05 09:46:22;;;;;;;9.73;6.73;;;;;;;;;;5012659;28;20703;-87
2023/12/05 09:49:06;;;;;;;11.27;6.67;;;;;;;;;;5014136;28;20703;-87
2023/12/05 09:54:37;;;;;;;8.60;6.27;;;;;;;;;;4971387;28;20221;-86
2023/12/05 09:57:07;;;;;;;10.40;6.63;;;;;;;;;;5013653;28;20189;-87
2023/12/05 10:02:28;;;;;;;14.57;6.33;;;;;;;;;;5012455;28;20212;-88
2023/12/05 10:05:00;;;;;;;11.27;6.53;;;;;;;;;;5013164;28;20208;-88
2023/12/05 10:07:38;;;;;;;10.47;6.30;;;;;;;;;;5013393;28;20304;-87
2023/12/05 10:10:12;;;;;;;13.13;7.30;;;;;;;;;;5012808;28;20252;-88
2023/12/05 10:12:45;;;;;;;6.80;5.53;;;;;;;;;;5012534;28;20230;-90
2023/12/05 10:15:18;;;;;;;7.87;5.53;;;;;;;;;;5012712;28;20291;-87
2023/12/05 10:17:47;;;;;;;7.13;5.07;;;;;;;;;;5012310;28;20625;-87
2023/12/05 10:20:19;;;;;;;10.03;6.90;;;;;;;;;;5012615;28;20381;-88
2023/12/05 10:23:12;;;;;;;8.80;6.00;;;;;;;;;;5013287;28;20205;-87
2023/12/05 10:25:43;;;;;;;8.20;6.17;;;;;;;;;;5014487;28;20263;-90
2023/12/05 10:28:18;;;;;;;9.53;6.13;;;;;;;;;;5023259;28;20256;-89
2023/12/05 10:31:11;;;;;;;9.70;6.27;;;;;;;;;;5034476;28;20216;-87
2023/12/05 10:33:43;;;;;;;7.30;5.33;;;;;;;;;;5034297;28;20213;-86
2023/12/05 10:36:24;;;;;;;7.70;6.17;;;;;;;;;;5033924;28;20295;-88
2023/12/05 10:39:24;;;;;;;11.13;6.13;;;;;;;;;;5032413;28;20212;-87
2023/12/05 10:47:35;;;;;;;7.53;5.87;;;;;;;;;;5013119;28;20713;-88
2023/12/05 10:50:35;;;;;;;7.17;5.40;;;;;;;;;;5014834;28;20231;-88
2023/12/05 10:53:29;;;;;;;11.53;5.57;;;;;;;;;;5018154;28;20208;-87
2023/12/05 10:56:10;;;;;;;9.60;5.67;;;;;;;;;;5014050;28;20211;-87
2023/12/05 10:58:52;;;;;;;6.13;4.60;;;;;;;;;;5013654;28;20210;-88
2023/12/05 11:01:45;;;;;;;8.30;5.50;;;;;;;;;;5017274;28;20201;-88
2023/12/05 11:04:24;;;;;;;10.13;5.20;;;;;;;;;;5027641;28;20267;-88
2023/12/05 11:06:59;;;;;;;11.77;5.53;;;;;;;;;;5026035;28;20208;-87
2023/12/05 11:10:10;;;;;;;10.03;6.73;;;;;;;;;;5032350;28;20191;-89
2023/12/05 11:12:59;;;;;;;8.20;5.43;;;;;;;;;;5030049;28;20398;-89
2023/12/05 11:15:34;;;;;;;7.60;6.13;;;;;;;;;;5026170;28;20208;-87
2023/12/05 11:24:38;;;;;;;10.17;6.17;;;;;;;;;;5031793;28;20193;-88
2023/12/05 11:33:01;;;;;;;14.13;5.53;;;;;;;;;;5027366;28;20307;-89
2023/12/05 11:35:42;;;;;;;6.27;4.80;;;;;;;;;;5029558;28;20193;-86
2023/12/05 11:38:28;;;;;;;8.87;5.23;;;;;;;;;;5013338;28;20303;-88
2023/12/05 11:44:18;;;;;;;9.53;4.50;;;;;;;;;;5011501;28;20211;-89
2023/12/05 11:46:56;;;;;;;5.07;3.77;;;;;;;;;;5014185;28;20212;-88
2023/12/05 11:53:11;;;;;;;;;;;;;;;;;;;;;
2023/12/05 11:55:54;;;;;;;4.93;4.20;;;;;;;;;;5016370;28;20200;-88
2023/12/05 11:58:33;;;;;;;6.23;3.93;;;;;;;;;;5015388;28;20215;-88
2023/12/05 12:01:10;;;;;;;7.77;4.40;;;;;;;;;;5016988;28;20650;-87
2023/12/05 12:06:40;;;;;;;6.37;3.73;;;;;;;;;;5018663;28;20209;-89
2023/12/05 12:09:10;;;;;;;8.93;4.90;;;;;;;;;;5016054;28;20248;-89
2023/12/05 12:14:51;;;;;;;6.17;3.23;;;;;;;;;;4998212;28;20204;-88
2023/12/05 12:17:23;;;;;;;6.17;3.77;;;;;;;;;;5018350;28;20254;-87
2023/12/05 12:19:52;;;;;;;7.97;4.50;;;;;;;;;;5020645;28;20196;-89
2023/12/05 12:25:12;;;;;;;10.50;4.60;;;;;;;;;;5001516;28;20201;-88
2023/12/05 12:27:44;;;;;;;3.93;3.53;;;;;;;;;;5015682;28;20201;-88
2023/12/05 12:30:15;;;;;;;10.17;3.77;;;;;;;;;;5016094;28;20196;-90
2023/12/05 12:32:57;;;;;;;7.60;4.50;;;;;;;;;;5015634;28;20232;-89
2023/12/05 12:35:27;;;;;;;9.67;4.87;;;;;;;;;;5015435;28;20208;-89
2023/12/05 12:37:57;;;;;;;7.87;4.30;;;;;;;;;;5015501;28;20223;-89
2023/12/05 12:40:28;;;;;;;4.20;3.33;;;;;;;;;;5016050;28;20264;-88
2023/12/05 12:43:00;;;;;;;3.87;3.47;;;;;;;;;;5016602;28;20609;-89
2023/12/05 12:45:31;;;;;;;4.50;3.53;;;;;;;;;;5015697;28;20201;-89
2023/12/05 12:48:03;;;;;;;4.40;4.00;;;;;;;;;;5015535;28;20201;-89
2023/12/05 12:50:38;;;;;;;5.13;4.20;;;;;;;;;;5015983;28;20201;-87
2023/12/05 12:53:21;;;;;;;10.63;4.57;;;;;;;;;;4995520;28;20231;-89
2023/12/05 12:58:42;;;;;;;5.87;4.40;;;;;;;;;;4992478;28;20197;-89
2023/12/05 13:01:28;;;;;;;5.97;4.60;;;;;;;;;;4994978;28;20288;-90
2023/12/05 13:04:09;;;;;;;4.90;4.27;;;;;;;;;;4977920;28;20695;-90
2023/12/05 13:09:30;;;;;;;7.20;5.00;;;;;;;;;;4993940;28;20202;-88
2023/12/05 13:15:03;;;;;;;7.43;4.57;;;;;;;;;;4997951;28;20618;-90
2023/12/05 13:20:32;;;;;;;7.77;4.43;;;;;;;;;;5007514;28;20208;-86
2023/12/05 13:23:22;;;;;;;5.77;3.80;;;;;;;;;;5004511;28;20236;-89
2023/12/05 13:26:06;;;;;;;8.40;4.27;;;;;;;;;;5001277;28;20288;-90
2023/12/05 13:28:39;;;;;;;4.93;4.40;;;;;;;;;;5009431;28;20268;-90
2023/12/05 13:31:12;;;;;;;14.97;4.70;;;;;;;;;;5007641;28;20201;-87
2023/12/05 13:33:45;;;;;;;5.17;4.63;;;;;;;;;;5002749;28;20216;-87
2023/12/05 13:36:38;;;;;;;5.30;4.37;;;;;;;;;;4995243;28;20259;-90
2023/12/05 13:39:30;;;;;;;7.47;5.17;;;;;;;;;;4994771;28;20220;-89
2023/12/05 13:42:02;;;;;;;5.50;4.87;;;;;;;;;;4996795;28;20281;-86
2023/12/05 13:50:12;;;;;;;8.70;4.87;;;;;;;;;;4972772;28;20194;-90
2023/12/05 13:52:56;;;;;;;6.90;5.10;;;;;;;;;;4995549;28;20348;-90
2023/12/05 13:55:27;;;;;;;7.13;4.87;;;;;;;;;;4995017;28;20197;-90
2023/12/05 13:58:11;;;;;;;11.40;5.63;;;;;;;;;;4996002;28;20224;-89
2023/12/05 14:00:45;;;;;;;8.93;5.07;;;;;;;;;;4995105;28;20189;-89
2023/12/05 14:09:14;;;;;;;4.47;3.30;;;;;;;;;;4991917;28;20212;-87
2023/12/05 14:11:44;;;;;;;5.83;3.47;;;;;;;;;;4982834;28;20237;-90
2023/12/05 14:14:15;;;;;;;7.67;3.57;;;;;;;;;;4992380;28;20221;-89
2023/12/05 14:19:43;;;;;;;13.50;3.63;;;;;;;;;;4980865;28;20233;-88
2023/12/05 14:22:12;;;;;;;3.80;3.43;;;;;;;;;;4979542;28;20259;-88
2023/12/05 14:25:07;;;;;;;6.33;4.20;;;;;;;;;;4978137;28;20635;-88
2023/12/05 14:28:09;;;;;;;6.80;3.43;;;;;;;;;;4973915;28;20317;-89
2023/12/05 14:30:46;;;;;;;4.70;2.97;;;;;;;;;;4978245;28;20734;-89
2023/12/05 14:42:28;;;;;;;7.73;4.10;;;;;;;;;;4992321;28;20222;-88
2023/12/05 14:45:23;;;;;;;7.10;4.30;;;;;;;;;;4990094;28;20261;-89
2023/12/05 14:48:13;;;;;;;6.77;3.60;;;;;;;;;;4993856;28;20210;-90
2023/12/05 14:53:52;;;;;;;8.60;3.80;;;;;;;;;;4970088;29;20306;-89
2023/12/05 14:56:49;;;;;;;13.20;4.07;;;;;;;;;;4990672;28;20232;-89
2023/12/05 14:59:40;;;;;;;5.93;3.67;;;;;;;;;;4989750;28;20226;-89
2023/12/05 15:08:45;;;;;;;6.50;4.10;;;;;;;;;;4862463;29;20786;-91
2023/12/05 15:14:49;;;;;;;;;;;;;;;;;;;;;
2023/12/05 15:17:34;;;;;;;13.17;3.63;;;;;;;;;;4971421;28;20217;-90
2023/12/05 15:20:21;;;;;;;5.33;3.73;;;;;;;;;;4964437;28;20234;-88
2023/12/05 15:26:17;;;;;;;3.93;2.97;;;;;;;;;;4968381;28;20241;-89
2023/12/05 15:32:00;;;;;;;12.10;3.60;;;;;;;;;;4975814;28;20702;-90
2023/12/05 15:34:57;;;;;;;3.27;2.80;;;;;;;;;;4969501;28;20257;-88
2023/12/05 15:37:46;;;;;;;6.20;2.90;;;;;;;;;;4968003;28;20301;-87
2023/12/05 15:40:36;;;;;;;5.10;3.93;;;;;;;;;;4977920;28;20241;-88
2023/12/05 15:43:04;;;;;;;8.77;4.00;;;;;;;;;;4967683;28;20773;-89
2023/12/05 15:45:35;;;;;;;3.53;3.00;;;;;;;;;;4976198;28;20229;-91
2023/12/05 15:48:28;;;;;;;1.87;1.77;;;;;;;;;;4983707;28;20614;-89
2023/12/05 15:53:52;;;;;;;4.90;3.53;;;;;;;;;;4985429;28;20242;-88
2023/12/05 15:59:26;;;;;;;6.87;3.30;;;;;;;;;;4915339;29;20228;-87
2023/12/05 16:02:01;;;;;;;3.43;3.10;;;;;;;;;;4951445;28;20321;-88
2023/12/05 16:07:38;;;;;;;;;;;;;;;;;;;;;
2023/12/05 16:35:50;;;;;;;5.40;2.40;;;;;;;;;;4588486;27;15754232;-88
2023/12/05 16:41:15;;;;;;;5.43;2.73;;;;;;;;;;5109947;28;20247;-88
2023/12/05 17:01:22;;;;;;;2.60;2.40;;;;;;;;;;5114372;28;20221;-90
2023/12/05 17:04:04;;;;;;;6.87;4.27;;;;;;;;;;5113092;28;20229;-89
2023/12/05 17:06:54;;;;;;;7.13;2.90;;;;;;;;;;5115552;28;20280;-89
2023/12/05 17:09:52;;;;;;;3.30;2.60;;;;;;;;;;5114869;28;20244;-87
2023/12/05 18:29:08;;;;;;;4.47;4.13;;;;;;;;;;1017891;26;21254;-89
2023/12/05 21:57:52;;;;;;;11.93;7.43;;;;;;;;;;4993552;28;20240;-90
2023/12/05 22:03:43;;;;;;;11.40;5.80;;;;;;;;;;4990102;28;20237;-89
2023/12/05 22:06:19;;;;;;;19.17;6.40;;;;;;;;;;4995268;28;20658;-88
2023/12/05 22:09:18;;;;;;;;;;;;;;;;;;;;;
2023/12/05 22:11:58;;;;;;;23.80;9.53;;;;;;;;;;4995859;28;20197;-89
2023/12/05 22:14:45;;;;;;;27.20;10.43;;;;;;;;;;4997243;28;20232;-87
2023/12/05 22:20:06;;;;;;;24.57;9.97;;;;;;;;;;4996412;28;20187;-88
2023/12/05 22:22:35;;;;;;;15.17;7.93;;;;;;;;;;4995975;28;20698;-89
2023/12/05 22:25:27;;;;;;;19.70;10.13;;;;;;;;;;4996827;28;20213;-87
2023/12/05 22:28:09;;;;;;;14.87;8.77;;;;;;;;;;4996460;28;20602;-89
2023/12/05 22:30:45;;;;;;;17.10;10.03;;;;;;;;;;4996825;28;20296;-89
2023/12/05 22:33:14;;;;;;;22.70;9.50;;;;;;;;;;4996426;28;20205;-88
2023/12/05 22:35:46;;;;;;;14.97;8.57;;;;;;;;;;4997455;28;20205;-87
2023/12/05 22:38:20;;;;;;;21.37;9.87;;;;;;;;;;4997815;28;20220;-87
2023/12/05 22:40:52;;;;;;;28.07;11.23;;;;;;;;;;5012659;28;20207;-90
2023/12/05 22:46:27;;;;;;;23.47;9.67;;;;;;;;;;5002729;28;20729;-89
2023/12/05 22:49:32;;;;;;;;;;;;;;;;;;;;;
2023/12/05 22:52:17;;;;;;;13.90;7.30;;;;;;;;;;5002207;28;20216;-89
2023/12/05 22:55:00;;;;;;;10.13;6.07;;;;;;;;;;5001574;28;20224;-90
2023/12/05 22:57:49;;;;;;;10.27;6.67;;;;;;;;;;5017148;28;20662;-90
2023/12/05 23:00:31;;;;;;;10.30;6.93;;;;;;;;;;5009074;28;20288;-88
2023/12/05 23:03:08;;;;;;;11.67;6.40;;;;;;;;;;5009345;28;20229;-89
2023/12/05 23:08:42;;;;;;;11.20;6.70;;;;;;;;;;4974597;28;20205;-88
2023/12/05 23:13:59;;;;;;;26.27;9.43;;;;;;;;;;4994176;28;20292;-89
2023/12/05 23:16:31;;;;;;;15.53;8.90;;;;;;;;;;4995348;28;20255;-89
2023/12/05 23:19:08;;;;;;;21.73;8.60;;;;;;;;;;4995126;28;20220;-89
2023/12/05 23:21:41;;;;;;;22.13;9.00;;;;;;;;;;4994634;28;20243;-88
2023/12/05 23:24:38;;;;;;;;;;;;;;;;;;;;;
2023/12/05 23:27:10;;;;;;;17.40;8.63;;;;;;;;;;4994212;28;20204;-88
2023/12/05 23:29:42;;;;;;;18.33;9.83;;;;;;;;;;4994403;28;20212;-89
2023/12/05 23:32:15;;;;;;;13.57;8.87;;;;;;;;;;4994552;28;20205;-90
2023/12/05 23:34:52;;;;;;;19.40;9.20;;;;;;;;;;4994014;28;20292;-89
2023/12/05 23:37:33;;;;;;;18.53;8.33;;;;;;;;;;4994668;28;20235;-89
2023/12/05 23:40:14;;;;;;;13.57;8.60;;;;;;;;;;4994438;28;20607;-87
2023/12/05 23:42:44;;;;;;;18.60;7.50;;;;;;;;;;4995897;28;20233;-89
2023/12/05 23:45:13;;;;;;;21.43;8.17;;;;;;;;;;4994999;28;20269;-89
2023/12/05 23:47:56;;;;;;;15.07;7.53;;;;;;;;;;5000509;28;20304;-88
2023/12/05 23:50:26;;;;;;;14.50;7.77;;;;;;;;;;5007577;28;20670;-88
2023/12/05 23:53:08;;;;;;;12.23;6.77;;;;;;;;;;5002620;28;20201;-89
2023/12/05 23:55:51;;;;;;;13.13;6.57;;;;;;;;;;4993601;28;20335;-88
2023/12/05 23:58:22;;;;;;;11.23;7.20;;;;;;;;;;4995075;28;20198;-88
